createdAt,value
2024-05-09T00:00:35.820Z,6.03
2024-05-09T00:03:10.526Z,6.00
2024-05-09T00:05:40.572Z,6.00
2024-05-09T00:08:08.733Z,5.99
2024-05-09T00:10:38.115Z,5.97
2024-05-09T00:13:07.208Z,5.96
2024-05-09T00:15:35.115Z,5.96
2024-05-09T00:18:03.168Z,5.98
2024-05-09T00:20:37.641Z,6.00
2024-05-09T00:23:10.553Z,5.97
2024-05-09T00:25:37.921Z,5.91
2024-05-09T00:28:05.458Z,5.88
2024-05-09T00:30:35.432Z,5.82
2024-05-09T00:33:05.779Z,5.76
2024-05-09T00:35:33.734Z,5.72
2024-05-09T00:38:01.121Z,5.69
2024-05-09T00:40:38.766Z,5.65
2024-05-09T00:43:08.339Z,5.59
2024-05-09T00:45:35.524Z,5.54
2024-05-09T00:48:04.828Z,5.49
2024-05-09T00:50:37.018Z,5.41
2024-05-09T00:53:08.234Z,5.33
2024-05-09T00:55:35.439Z,5.32
2024-05-09T00:58:02.777Z,5.32
2024-05-09T01:00:37.758Z,5.29
2024-05-09T01:03:08.213Z,5.25
2024-05-09T01:05:38.663Z,5.21
2024-05-09T01:08:06.246Z,5.19
2024-05-09T01:10:35.150Z,5.19
2024-05-09T01:13:06.571Z,5.19
2024-05-09T01:15:34.226Z,5.21
2024-05-09T01:18:03.165Z,5.23
2024-05-09T01:20:39.677Z,5.21
2024-05-09T01:23:10.200Z,5.21
2024-05-09T01:25:37.555Z,5.20
2024-05-09T01:28:04.751Z,5.18
2024-05-09T01:30:35.389Z,5.13
2024-05-09T01:33:09.281Z,5.05
2024-05-09T01:35:38.594Z,4.97
2024-05-09T01:38:05.918Z,4.89
2024-05-09T01:40:37.872Z,4.86
2024-05-09T01:43:11.046Z,4.78
2024-05-09T01:45:40.055Z,4.73
2024-05-09T01:48:08.231Z,4.70
2024-05-09T01:50:39.665Z,4.67
2024-05-09T01:53:10.284Z,4.68
2024-05-09T01:55:37.601Z,4.64
2024-05-09T01:58:04.731Z,4.62
2024-05-09T02:00:38.833Z,4.59
2024-05-09T02:03:10.763Z,4.51
2024-05-09T02:05:39.671Z,4.48
2024-05-09T02:08:06.938Z,4.46
2024-05-09T02:10:33.947Z,4.40
2024-05-09T02:13:01.154Z,4.36
2024-05-09T02:15:28.043Z,4.35
2024-05-09T02:17:57.084Z,4.35
2024-05-09T02:20:33.096Z,4.38
2024-05-09T02:23:04.880Z,4.41
2024-05-09T02:25:32.367Z,4.42
2024-05-09T02:27:59.445Z,4.40
2024-05-09T02:30:36.183Z,4.40
2024-05-09T02:33:08.405Z,4.39
2024-05-09T02:35:36.101Z,4.41
2024-05-09T02:38:03.372Z,4.47
2024-05-09T02:40:36.754Z,4.50
2024-05-09T02:43:10.132Z,4.58
2024-05-09T02:45:38.824Z,4.87
2024-05-09T02:48:06.605Z,5.31
2024-05-09T02:50:38.416Z,5.73
2024-05-09T02:53:07.874Z,6.15
2024-05-09T02:55:35.134Z,6.51
2024-05-09T02:58:01.958Z,6.87
2024-05-09T03:00:36.953Z,7.09
2024-05-09T03:03:08.068Z,7.29
2024-05-09T03:05:35.933Z,7.32
2024-05-09T03:08:03.008Z,7.63
2024-05-09T03:10:35.671Z,7.78
2024-05-09T03:13:08.543Z,7.55
2024-05-09T03:15:35.952Z,7.38
2024-05-09T03:18:03.612Z,7.25
2024-05-09T03:20:34.626Z,6.96
2024-05-09T03:23:03.388Z,6.73
2024-05-09T03:25:30.526Z,6.50
2024-05-09T03:27:57.406Z,6.24
2024-05-09T03:30:36.110Z,6.05
2024-05-09T03:33:13.376Z,5.86
2024-05-09T03:35:41.154Z,5.63
2024-05-09T03:38:08.395Z,5.49
2024-05-09T03:40:35.460Z,5.42
2024-05-09T03:43:02.329Z,5.38
2024-05-09T03:45:29.287Z,5.36
2024-05-09T03:47:56.461Z,5.31
2024-05-09T03:50:30.074Z,5.23
2024-05-09T03:53:01.923Z,5.22
2024-05-09T03:55:28.768Z,5.21
2024-05-09T03:57:55.581Z,5.22
2024-05-09T04:00:30.980Z,5.27
2024-05-09T04:03:06.221Z,5.25
2024-05-09T04:05:35.102Z,5.21
2024-05-09T04:08:02.405Z,5.20
2024-05-09T04:10:33.430Z,5.24
2024-05-09T04:13:02.417Z,5.26
2024-05-09T04:15:29.762Z,5.27
2024-05-09T04:17:56.837Z,5.26
2024-05-09T04:20:33.379Z,5.28
2024-05-09T04:23:06.354Z,5.33
2024-05-09T04:25:33.709Z,5.37
2024-05-09T04:28:00.721Z,5.42
2024-05-09T04:30:36.401Z,5.42
2024-05-09T04:33:08.274Z,5.53
2024-05-09T04:35:37.022Z,5.63
2024-05-09T04:38:04.915Z,5.71
2024-05-09T04:40:35.251Z,5.75
2024-05-09T04:43:07.560Z,5.81
2024-05-09T04:45:34.960Z,5.81
2024-05-09T04:48:02.613Z,5.82
2024-05-09T04:50:36.584Z,5.86
2024-05-09T04:53:07.627Z,5.90
2024-05-09T04:55:36.642Z,5.98
2024-05-09T04:58:03.716Z,5.98
2024-05-09T05:00:36.392Z,6.06
2024-05-09T05:03:08.044Z,6.20
2024-05-09T05:05:43.296Z,6.24
2024-05-09T05:08:15.132Z,6.25
2024-05-09T05:10:43.181Z,6.35
2024-05-09T05:13:17.906Z,6.41
2024-05-09T05:15:46.562Z,6.39
2024-05-09T05:18:14.902Z,6.54
2024-05-09T05:20:42.229Z,6.97
2024-05-09T05:23:14.152Z,7.56
2024-05-09T05:25:41.929Z,8.39
2024-05-09T05:28:08.941Z,9.09
2024-05-09T05:30:37.373Z,9.26
2024-05-09T05:33:05.180Z,9.66
2024-05-09T05:35:32.213Z,10.46
2024-05-09T05:37:59.201Z,11.29
2024-05-09T05:40:33.265Z,11.64
2024-05-09T05:43:10.533Z,11.36
2024-05-09T05:45:37.933Z,11.33
2024-05-09T05:48:06.534Z,11.25
2024-05-09T05:50:36.836Z,11.31
2024-05-09T05:53:05.878Z,11.65
2024-05-09T05:55:33.024Z,11.80
2024-05-09T05:58:01.465Z,12.03
2024-05-09T06:00:34.859Z,12.44
2024-05-09T06:03:05.695Z,12.62
2024-05-09T06:05:33.528Z,12.54
2024-05-09T06:08:00.648Z,12.63
2024-05-09T06:10:37.137Z,12.79
2024-05-09T06:13:06.906Z,12.43
2024-05-09T06:15:33.878Z,12.39
2024-05-09T06:18:01.035Z,12.63
2024-05-09T06:20:35.499Z,12.88
2024-05-09T06:23:08.989Z,13.18
2024-05-09T06:25:37.799Z,13.50
2024-05-09T06:28:05.578Z,13.50
2024-05-09T06:30:42.688Z,13.33
2024-05-09T06:33:12.487Z,13.58
2024-05-09T06:35:41.666Z,13.45
2024-05-09T06:38:09.369Z,12.68
2024-05-09T06:40:42.197Z,12.46
2024-05-09T06:43:14.760Z,12.44
2024-05-09T06:45:42.919Z,12.23
2024-05-09T06:48:10.370Z,12.03
2024-05-09T06:50:39.501Z,11.87
2024-05-09T06:53:08.068Z,11.96
2024-05-09T06:55:35.930Z,11.90
2024-05-09T06:58:05.214Z,11.69
2024-05-09T07:00:38.615Z,11.53
2024-05-09T07:03:16.086Z,11.52
2024-05-09T07:05:45.983Z,11.68
2024-05-09T07:08:13.552Z,11.91
2024-05-09T07:10:40.501Z,12.21
2024-05-09T07:13:10.946Z,12.67
2024-05-09T07:15:38.151Z,13.04
2024-05-09T07:18:13.251Z,13.29
2024-05-09T07:20:40.959Z,13.71
2024-05-09T07:23:12.043Z,13.75
2024-05-09T07:25:39.854Z,14.11
2024-05-09T07:28:17.182Z,14.21
2024-05-09T07:30:44.463Z,14.03
2024-05-09T07:33:22.615Z,14.25
2024-05-09T07:35:51.047Z,14.68
2024-05-09T07:38:18.117Z,14.46
2024-05-09T07:40:45.107Z,13.95
2024-05-09T07:43:12.779Z,13.58
2024-05-09T07:45:49.332Z,13.27
2024-05-09T07:52:37.719Z,12.90
2024-05-09T07:53:46.182Z,13.26
2024-05-09T07:56:16.742Z,13.76
2024-05-09T07:58:43.977Z,14.10
2024-05-09T08:01:11.023Z,14.13
2024-05-09T08:03:38.313Z,14.24
2024-05-09T08:06:05.540Z,14.32
2024-05-09T08:08:32.901Z,14.01
2024-05-09T08:10:59.820Z,14.15
2024-05-09T08:13:26.894Z,14.51
2024-05-09T08:15:53.845Z,14.37
2024-05-09T08:18:20.981Z,14.12
2024-05-09T08:20:48.161Z,13.97
2024-05-09T08:23:15.194Z,13.92
2024-05-09T08:26:38.526Z,14.08
2024-05-09T08:29:05.973Z,13.82
2024-05-09T08:31:38.590Z,13.63
2024-05-09T08:34:07.176Z,13.59
2024-05-09T08:36:35.304Z,13.76
2024-05-09T08:39:02.468Z,14.14
2024-05-09T08:41:49.227Z,14.30
2024-05-09T08:44:16.481Z,14.06
2024-05-09T08:46:44.445Z,14.11
2024-05-09T08:49:12.066Z,13.96
2024-05-09T08:51:39.317Z,13.55
2024-05-09T08:54:06.508Z,13.35
2024-05-09T08:56:34.584Z,13.14
2024-05-09T08:59:02.144Z,12.88
2024-05-09T09:01:33.213Z,12.54
2024-05-09T09:04:02.720Z,11.91
2024-05-09T09:06:30.334Z,11.44
2024-05-09T09:08:57.602Z,11.33
2024-05-09T09:11:24.812Z,11.24
2024-05-09T09:13:52.357Z,11.32
2024-05-09T09:16:19.634Z,11.31
2024-05-09T09:18:48.228Z,11.25
2024-05-09T09:21:17.435Z,11.11
2024-05-09T09:23:45.664Z,11.10
2024-05-09T09:26:16.089Z,11.08
2024-05-09T09:28:44.721Z,11.03
2024-05-09T09:31:11.769Z,11.01
2024-05-09T09:33:42.421Z,11.11
2024-05-09T09:36:13.525Z,11.28
2024-05-09T09:38:40.703Z,11.18
2024-05-09T09:41:08.348Z,11.02
2024-05-09T09:43:35.453Z,10.85
2024-05-09T09:46:02.682Z,10.81
2024-05-09T09:48:31.202Z,10.95
2024-05-09T09:50:58.216Z,11.17
2024-05-09T09:53:25.078Z,11.28
2024-05-09T09:59:13.496Z,11.27
2024-05-09T10:01:44.397Z,11.11
2024-05-09T10:04:18.767Z,10.99
2024-05-09T10:06:51.231Z,10.95
2024-05-09T10:09:18.580Z,10.89
2024-05-09T10:11:51.781Z,10.90
2024-05-09T10:14:22.800Z,11.02
2024-05-09T10:16:50.256Z,11.19
2024-05-09T10:19:27.526Z,11.23
2024-05-09T10:22:03.472Z,11.10
2024-05-09T10:24:50.056Z,10.98
2024-05-09T10:27:28.850Z,10.95
2024-05-09T10:29:57.139Z,11.05
2024-05-09T10:32:26.744Z,11.14
2024-05-09T10:35:15.138Z,11.30
2024-05-09T10:37:42.484Z,11.44
2024-05-09T10:40:23.081Z,11.38
2024-05-09T10:42:56.799Z,11.44
2024-05-09T10:45:24.851Z,11.52
2024-05-09T10:47:55.776Z,11.48
2024-05-09T10:50:28.511Z,11.31
2024-05-09T10:52:59.101Z,11.30
2024-05-09T10:55:27.579Z,11.36
2024-05-09T10:57:54.841Z,11.30
2024-05-09T11:00:27.783Z,11.12
2024-05-09T11:03:00.939Z,11.06
2024-05-09T11:05:28.577Z,11.01
2024-05-09T11:07:56.056Z,11.08
2024-05-09T11:10:27.865Z,11.27
2024-05-09T11:13:01.683Z,11.42
2024-05-09T11:15:41.898Z,11.50
2024-05-09T11:18:24.239Z,11.48
2024-05-09T11:20:53.165Z,11.43
2024-05-09T11:23:21.959Z,11.37
2024-05-09T11:25:53.083Z,11.32
2024-05-09T11:28:20.791Z,11.25
2024-05-09T11:30:48.939Z,11.32
2024-05-09T11:33:17.101Z,11.55
2024-05-09T11:35:44.750Z,11.63
2024-05-09T11:38:12.322Z,11.55
2024-05-09T11:40:39.549Z,11.49
2024-05-09T11:43:07.100Z,11.46
2024-05-09T11:45:34.413Z,11.44
2024-05-09T11:48:02.149Z,11.48
2024-05-09T11:50:34.673Z,11.61
2024-05-09T11:53:02.882Z,11.73
2024-05-09T11:55:31.052Z,11.84
2024-05-09T11:57:58.870Z,11.86
2024-05-09T12:00:33.992Z,11.80
2024-05-09T12:03:06.025Z,11.82
2024-05-09T12:05:34.212Z,11.85
2024-05-09T12:08:02.252Z,11.86
2024-05-09T12:10:33.494Z,11.93
2024-05-09T12:13:04.913Z,11.94
2024-05-09T12:15:36.847Z,11.85
2024-05-09T12:18:05.316Z,11.82
2024-05-09T12:20:37.554Z,11.74
2024-05-09T12:23:07.400Z,11.66
2024-05-09T12:25:35.832Z,11.65
2024-05-09T12:28:03.442Z,11.72
2024-05-09T12:30:36.709Z,11.77
2024-05-09T12:33:11.506Z,11.82
2024-05-09T12:35:39.772Z,11.85
2024-05-09T12:38:06.971Z,11.86
2024-05-09T12:40:37.729Z,11.92
2024-05-09T12:43:06.764Z,11.95
2024-05-09T12:45:34.287Z,11.97
2024-05-09T12:48:01.683Z,11.97
2024-05-09T12:50:33.251Z,11.98
2024-05-09T12:53:03.031Z,12.05
2024-05-09T12:55:37.364Z,12.13
2024-05-09T12:58:11.962Z,12.25
2024-05-09T13:00:39.441Z,12.38
2024-05-09T13:03:07.220Z,12.39
2024-05-09T13:05:34.697Z,12.37
2024-05-09T13:08:03.450Z,12.40
2024-05-09T13:10:32.846Z,12.46
2024-05-09T13:13:01.777Z,12.48
2024-05-09T13:15:31.005Z,12.43
2024-05-09T13:18:01.857Z,12.42
2024-05-09T13:20:34.386Z,12.43
2024-05-09T13:23:03.917Z,12.44
2024-05-09T13:25:31.609Z,12.47
2024-05-09T13:27:58.993Z,12.42
2024-05-09T13:30:35.528Z,12.38
2024-05-09T13:33:08.356Z,12.34
2024-05-09T13:35:36.235Z,12.36
2024-05-09T13:38:04.489Z,12.42
2024-05-09T13:48:10.130Z,12.35
2024-05-09T13:50:37.964Z,12.35
2024-05-09T13:53:06.980Z,12.36
2024-05-09T13:55:37.370Z,12.38
2024-05-09T13:58:04.597Z,12.40
2024-05-09T14:00:42.482Z,12.37
2024-05-09T14:03:15.119Z,12.34
2024-05-09T14:05:42.941Z,12.33
2024-05-09T14:08:09.874Z,12.36
2024-05-09T14:10:43.102Z,12.41
2024-05-09T14:13:10.176Z,12.49
2024-05-09T14:15:37.526Z,12.51
2024-05-09T14:18:04.721Z,12.54
2024-05-09T14:20:32.585Z,12.62
2024-05-09T14:23:00.847Z,12.63
2024-05-09T14:25:29.106Z,12.57
2024-05-09T14:27:57.495Z,12.57
2024-05-09T14:30:31.206Z,12.54
2024-05-09T14:33:04.168Z,12.54
2024-05-09T14:35:31.409Z,12.52
2024-05-09T14:37:58.610Z,12.49
2024-05-09T14:40:35.933Z,12.46
2024-05-09T14:43:08.022Z,12.44
2024-05-09T14:45:35.184Z,12.46
2024-05-09T14:48:02.854Z,12.49
2024-05-09T14:50:35.948Z,12.52
2024-05-09T14:53:07.240Z,12.49
2024-05-09T14:55:36.698Z,12.53
2024-05-09T14:58:07.934Z,12.53
2024-05-09T15:00:44.421Z,12.49
2024-05-09T15:03:15.061Z,12.41
2024-05-09T15:05:42.455Z,12.39
2024-05-09T15:08:09.529Z,12.40
2024-05-09T15:10:37.394Z,12.40
2024-05-09T15:13:06.554Z,12.42
2024-05-09T15:15:35.284Z,12.38
2024-05-09T15:18:06.515Z,12.34
2024-05-09T15:20:36.502Z,12.31
2024-05-09T15:23:04.736Z,12.27
2024-05-09T15:25:33.099Z,12.25
2024-05-09T15:28:00.230Z,12.25
2024-05-09T15:30:31.503Z,12.20
2024-05-09T15:33:03.251Z,12.19
2024-05-09T15:35:30.870Z,12.16
2024-05-09T15:37:57.823Z,12.12
2024-05-09T15:40:34.450Z,12.06
2024-05-09T15:43:06.735Z,12.01
2024-05-09T15:45:35.651Z,11.97
2024-05-09T15:48:03.684Z,11.95
2024-05-09T15:50:37.472Z,11.90
2024-05-09T15:53:09.254Z,11.88
2024-05-09T15:55:37.091Z,11.82
2024-05-09T15:58:04.793Z,11.81
2024-05-09T16:00:38.511Z,11.78
2024-05-09T16:03:10.509Z,11.74
2024-05-09T16:05:38.226Z,11.73
2024-05-09T16:08:06.175Z,11.69
2024-05-09T16:10:35.358Z,11.66
2024-05-09T16:13:03.549Z,11.63
2024-05-09T16:15:34.291Z,11.62
2024-05-09T16:18:02.741Z,11.60
2024-05-09T16:20:38.127Z,11.55
2024-05-09T19:57:10.245Z,4.93
2024-05-09T19:59:37.753Z,4.99
2024-05-09T20:02:05.495Z,5.02
2024-05-09T20:04:34.719Z,5.04
2024-05-09T20:07:02.606Z,5.03
2024-05-09T20:09:30.194Z,5.03
2024-05-09T20:11:57.353Z,5.02
2024-05-09T20:14:25.812Z,5.01
2024-05-09T20:16:52.821Z,4.99
2024-05-09T20:19:21.619Z,4.97
2024-05-09T20:21:49.681Z,4.96
2024-05-09T20:24:17.035Z,4.92
2024-05-09T20:26:44.917Z,4.89
2024-05-09T20:29:12.147Z,4.84
2024-05-09T20:31:41.323Z,4.81
2024-05-09T20:34:08.750Z,4.80
2024-05-09T20:36:36.516Z,4.76
2024-05-09T20:39:04.046Z,4.72
2024-05-09T20:41:32.025Z,4.67
2024-05-09T20:51:52.534Z,4.54
2024-05-09T20:54:19.434Z,4.50
2024-05-09T20:56:47.041Z,4.46
2024-05-09T20:59:13.677Z,4.44
2024-05-09T21:01:40.942Z,4.40
2024-05-09T21:04:08.332Z,4.39
2024-05-09T21:06:35.372Z,4.35
2024-05-09T21:09:02.326Z,4.31
2024-05-09T21:11:29.266Z,4.26
2024-05-09T21:13:56.076Z,4.21
2024-05-09T21:16:23.032Z,4.17
2024-05-09T21:18:49.857Z,4.11
2024-05-09T21:21:16.650Z,4.07
2024-05-09T21:23:44.142Z,4.01
2024-05-09T21:26:11.518Z,3.97
2024-05-09T21:28:38.172Z,3.95
2024-05-09T21:31:04.775Z,3.95
2024-05-09T21:33:31.701Z,3.94
2024-05-09T21:35:58.065Z,3.90
2024-05-09T21:38:24.473Z,3.89
2024-05-09T21:40:50.913Z,3.86
2024-05-09T21:43:17.691Z,3.84
2024-05-09T21:45:44.217Z,3.83
2024-05-09T21:48:12.010Z,3.83
2024-05-09T21:50:41.373Z,3.86
2024-05-09T21:53:10.218Z,3.88
2024-05-09T21:55:36.646Z,3.90
2024-05-09T21:58:03.682Z,3.90
2024-05-09T22:00:36.342Z,3.90
2024-05-09T22:03:08.751Z,3.88
2024-05-09T22:05:36.788Z,3.86
2024-05-09T22:08:03.218Z,3.83
2024-05-09T22:10:34.279Z,3.80
2024-05-09T22:13:04.331Z,3.76
2024-05-09T22:15:34.858Z,3.69
2024-05-09T22:18:01.294Z,3.64
2024-05-09T22:20:34.406Z,3.60
2024-05-09T22:23:04.536Z,3.55
2024-05-09T22:25:32.090Z,3.53
2024-05-09T22:27:59.674Z,3.53
2024-05-09T22:30:34.355Z,3.54
2024-05-09T22:33:05.186Z,3.54
2024-05-09T22:35:31.764Z,3.51
2024-05-09T22:37:58.126Z,3.49
2024-05-09T22:40:33.470Z,3.45
2024-05-09T22:43:09.379Z,3.42
2024-05-09T22:45:36.046Z,3.41
2024-05-09T22:48:02.598Z,3.39
2024-05-09T22:50:33.273Z,3.34
2024-05-09T22:53:00.207Z,3.32
2024-05-09T22:55:26.525Z,3.30
2024-05-09T22:57:52.785Z,3.30
2024-05-09T23:00:25.680Z,3.30
2024-05-09T23:02:55.797Z,3.29
2024-05-09T23:05:22.259Z,3.22
2024-05-09T23:07:48.743Z,3.14
2024-05-09T23:10:21.283Z,3.10
2024-05-09T23:12:54.536Z,3.11
2024-05-09T23:15:20.996Z,3.10
2024-05-09T23:17:47.616Z,3.13
2024-05-09T23:20:14.952Z,3.10
2024-05-09T23:22:41.400Z,3.08
2024-05-09T23:25:07.778Z,3.11
2024-05-09T23:27:34.218Z,3.06
2024-05-09T23:30:00.538Z,2.97
2024-05-09T23:32:27.022Z,2.93
2024-05-09T23:34:53.542Z,2.96
2024-05-09T23:37:20.085Z,2.97
2024-05-09T23:39:46.495Z,2.90
2024-05-09T23:42:12.825Z,2.88
2024-05-09T23:44:39.073Z,2.87
2024-05-09T23:47:06.830Z,2.83
2024-05-09T23:49:34.949Z,2.80
2024-05-09T23:52:01.381Z,2.77
2024-05-09T23:54:27.729Z,2.74
2024-05-09T23:56:54.108Z,2.69
2024-05-09T23:59:20.383Z,2.67
